Time;durP1;ratioP1;P1;durP2;ratioP2;P2;SDS_P1;SDS_P2;PMS_P1;PMS_P2;Temp;Humidity;BMP_temperature;BMP_pressure;BME280_temperature;BME280_humidity;BME280_pressure;Samples;Min_cycle;Max_cycle;Signal;HPM_P1;HPM_P2
2024/01/04 00:01:23;;;;;;;226.25;121.63;;;;;;;;;;5007521;28;20029;-88
2024/01/04 00:03:48;;;;;;;225.68;122.32;;;;;;;;;;5025550;28;20025;-88
2024/01/04 00:06:14;;;;;;;397.50;187.88;;;;;;;;;;5006102;28;20014;-89
2024/01/04 00:08:39;;;;;;;237.40;126.13;;;;;;;;;;5023949;28;20025;-88
2024/01/04 00:11:06;;;;;;;251.60;133.63;;;;;;;;;;5024496;28;20545;-88
2024/01/04 00:13:32;;;;;;;227.65;125.45;;;;;;;;;;5007619;28;20395;-88
2024/01/04 00:15:57;;;;;;;277.95;145.70;;;;;;;;;;5022782;28;20022;-88
2024/01/04 00:18:22;;;;;;;241.63;128.05;;;;;;;;;;5023238;28;20029;-88
2024/01/04 00:20:47;;;;;;;269.13;143.20;;;;;;;;;;5024743;28;20013;-88
2024/01/04 00:23:13;;;;;;;233.18;125.03;;;;;;;;;;5021977;28;20140;-88
2024/01/04 00:25:38;;;;;;;225.43;123.13;;;;;;;;;;5007056;28;20033;-88
2024/01/04 00:28:03;;;;;;;214.00;118.78;;;;;;;;;;5010156;28;20025;-88
2024/01/04 00:30:29;;;;;;;220.90;120.60;;;;;;;;;;5007340;28;20109;-88
2024/01/04 00:32:54;;;;;;;251.77;124.88;;;;;;;;;;5022762;28;20160;-88
2024/01/04 00:35:20;;;;;;;208.20;114.97;;;;;;;;;;5007227;28;20399;-87
2024/01/04 00:37:46;;;;;;;157.23;84.72;;;;;;;;;;5022613;28;20042;-88
2024/01/04 00:40:11;;;;;;;179.77;94.85;;;;;;;;;;5022060;28;20619;-88
2024/01/04 00:42:36;;;;;;;180.60;96.78;;;;;;;;;;5007639;28;20025;-88
2024/01/04 00:45:02;;;;;;;134.55;65.25;;;;;;;;;;5005329;28;20622;-88
2024/01/04 00:47:27;;;;;;;137.23;63.45;;;;;;;;;;5024592;28;20052;-87
2024/01/04 00:49:52;;;;;;;93.68;47.05;;;;;;;;;;5022421;28;20076;-87
2024/01/04 00:52:18;;;;;;;152.32;61.63;;;;;;;;;;5024802;28;20033;-88
2024/01/04 00:54:43;;;;;;;45.95;21.98;;;;;;;;;;5004795;28;20613;-87
2024/01/04 00:57:08;;;;;;;33.92;18.90;;;;;;;;;;5024184;28;20396;-87
2024/01/04 00:59:34;;;;;;;67.80;33.00;;;;;;;;;;5007631;28;20041;-88
2024/01/04 01:01:59;;;;;;;90.70;36.42;;;;;;;;;;4994189;28;20108;-88
2024/01/04 01:04:25;;;;;;;73.75;33.65;;;;;;;;;;4998047;28;20124;-88
2024/01/04 01:06:50;;;;;;;79.20;33.58;;;;;;;;;;5005464;28;20025;-88
2024/01/04 01:09:15;;;;;;;46.83;22.98;;;;;;;;;;5022136;28;20618;-88
2024/01/04 01:11:40;;;;;;;48.00;26.00;;;;;;;;;;5004801;28;20030;-87
2024/01/04 01:14:06;;;;;;;34.25;19.50;;;;;;;;;;5024484;28;20042;-87
2024/01/04 01:16:31;;;;;;;48.72;22.40;;;;;;;;;;5004205;28;20633;-87
2024/01/04 01:18:57;;;;;;;33.30;16.08;;;;;;;;;;5023634;28;20030;-87
2024/01/04 01:21:22;;;;;;;52.70;25.73;;;;;;;;;;5004760;28;20029;-88
2024/01/04 01:23:47;;;;;;;36.92;16.85;;;;;;;;;;4995022;28;20025;-87
2024/01/04 01:26:13;;;;;;;41.72;21.20;;;;;;;;;;5022593;28;20037;-88
2024/01/04 01:28:38;;;;;;;37.58;22.35;;;;;;;;;;5024395;28;20486;-87
2024/01/04 01:31:03;;;;;;;38.90;21.83;;;;;;;;;;5005225;28;20040;-87
2024/01/04 01:33:29;;;;;;;82.38;44.05;;;;;;;;;;5023461;28;20013;-88
2024/01/04 01:35:54;;;;;;;54.83;23.95;;;;;;;;;;5005111;28;20021;-87
2024/01/04 01:38:20;;;;;;;54.30;25.33;;;;;;;;;;5024708;28;20065;-88
2024/01/04 01:40:45;;;;;;;45.88;22.90;;;;;;;;;;5023939;28;20109;-88
2024/01/04 01:43:11;;;;;;;46.30;22.35;;;;;;;;;;5023414;28;20083;-88
2024/01/04 01:45:36;;;;;;;45.60;24.90;;;;;;;;;;5024169;28;20376;-88
2024/01/04 01:48:02;;;;;;;40.42;22.95;;;;;;;;;;5005975;28;20069;-88
2024/01/04 01:50:28;;;;;;;39.38;24.13;;;;;;;;;;5006940;28;20026;-88
2024/01/04 01:52:53;;;;;;;46.80;26.55;;;;;;;;;;5023283;28;20021;-88
2024/01/04 01:55:19;;;;;;;65.25;35.03;;;;;;;;;;5023224;28;20049;-88
2024/01/04 01:57:45;;;;;;;62.10;32.50;;;;;;;;;;5008624;28;20021;-88
2024/01/04 02:00:13;;;;;;;101.30;52.58;;;;;;;;;;5007394;28;20377;-88
2024/01/04 02:02:38;;;;;;;69.20;38.53;;;;;;;;;;5010222;28;20037;-88
2024/01/04 02:05:03;;;;;;;67.43;36.72;;;;;;;;;;4989829;28;20499;-88
2024/01/04 02:07:29;;;;;;;70.72;39.33;;;;;;;;;;5023632;28;20029;-88
2024/01/04 02:09:54;;;;;;;99.07;58.38;;;;;;;;;;5009708;28;20450;-88
2024/01/04 02:12:20;;;;;;;75.70;44.17;;;;;;;;;;5027005;28;20029;-88
2024/01/04 02:14:45;;;;;;;79.43;44.42;;;;;;;;;;4992386;28;20029;-88
2024/01/04 02:17:10;;;;;;;60.90;33.55;;;;;;;;;;5009163;28;20427;-88
2024/01/04 02:19:36;;;;;;;37.88;23.95;;;;;;;;;;5025999;28;20245;-88
2024/01/04 02:22:02;;;;;;;37.95;22.40;;;;;;;;;;5026891;28;20025;-88
2024/01/04 02:24:27;;;;;;;42.42;24.60;;;;;;;;;;5014302;28;20480;-88
2024/01/04 02:26:53;;;;;;;25.67;16.65;;;;;;;;;;5009280;28;20032;-88
2024/01/04 02:29:19;;;;;;;24.23;15.15;;;;;;;;;;5027222;28;20425;-88
2024/01/04 02:31:45;;;;;;;65.45;37.00;;;;;;;;;;5026684;28;20487;-88
2024/01/04 02:34:10;;;;;;;59.40;28.67;;;;;;;;;;5021795;28;20025;-88
2024/01/04 02:36:35;;;;;;;38.20;22.35;;;;;;;;;;5002882;28;20029;-87
2024/01/04 02:39:00;;;;;;;35.22;19.75;;;;;;;;;;5005202;28;20583;-88
2024/01/04 02:41:26;;;;;;;439.80;138.57;;;;;;;;;;5019067;28;20022;-88
2024/01/04 02:43:51;;;;;;;344.75;111.68;;;;;;;;;;5007913;28;20029;-87
2024/01/04 02:46:16;;;;;;;176.57;67.20;;;;;;;;;;5019423;28;20079;-87
2024/01/04 02:48:42;;;;;;;69.25;31.13;;;;;;;;;;4992885;28;20029;-87
2024/01/04 02:51:07;;;;;;;55.90;27.77;;;;;;;;;;5003203;28;20018;-88
2024/01/04 02:53:33;;;;;;;934.28;430.85;;;;;;;;;;5004564;28;20119;-88
2024/01/04 02:55:58;;;;;;;224.20;87.13;;;;;;;;;;5020374;28;20048;-87
2024/01/04 02:58:23;;;;;;;66.82;32.92;;;;;;;;;;5022378;28;20028;-87
2024/01/04 03:00:49;;;;;;;50.40;29.35;;;;;;;;;;5025328;28;20079;-86
2024/01/04 03:03:14;;;;;;;183.18;83.28;;;;;;;;;;5025978;28;20022;-88
2024/01/04 03:05:39;;;;;;;97.38;45.72;;;;;;;;;;5030603;28;20427;-86
2024/01/04 03:08:05;;;;;;;201.52;93.57;;;;;;;;;;5014419;28;20418;-87
2024/01/04 03:10:30;;;;;;;117.35;55.40;;;;;;;;;;5013736;28;20029;-88
2024/01/04 03:12:55;;;;;;;49.78;28.63;;;;;;;;;;5012589;28;20032;-87
2024/01/04 03:15:21;;;;;;;105.78;45.90;;;;;;;;;;5012976;28;20104;-87
2024/01/04 03:17:46;;;;;;;54.10;30.60;;;;;;;;;;5013119;28;20032;-88
2024/01/04 03:20:11;;;;;;;49.08;26.63;;;;;;;;;;5009038;28;20116;-87
2024/01/04 03:22:37;;;;;;;43.65;25.05;;;;;;;;;;5026107;28;20112;-87
2024/01/04 03:25:02;;;;;;;36.40;23.92;;;;;;;;;;5011877;28;20057;-87
2024/01/04 03:27:28;;;;;;;59.25;31.42;;;;;;;;;;5008613;28;20033;-87
2024/01/04 03:29:55;;;;;;;37.45;24.75;;;;;;;;;;5012765;28;20652;-87
2024/01/04 03:32:20;;;;;;;76.22;41.08;;;;;;;;;;5008613;28;20607;-85
2024/01/04 03:34:45;;;;;;;89.35;48.85;;;;;;;;;;5023437;28;20040;-87
2024/01/04 03:37:11;;;;;;;93.15;49.78;;;;;;;;;;5026144;28;20064;-87
2024/01/04 03:39:36;;;;;;;92.13;48.95;;;;;;;;;;5007493;28;20114;-87
2024/01/04 03:42:01;;;;;;;117.18;62.22;;;;;;;;;;5024792;28;20234;-86
2024/01/04 03:44:27;;;;;;;83.25;45.88;;;;;;;;;;5022937;28;20028;-87
2024/01/04 03:46:52;;;;;;;119.47;60.38;;;;;;;;;;4993761;28;20033;-87
2024/01/04 03:49:17;;;;;;;86.70;48.20;;;;;;;;;;5014003;28;20232;-87
2024/01/04 03:51:43;;;;;;;69.95;35.03;;;;;;;;;;5026566;28;20022;-87
2024/01/04 03:54:08;;;;;;;56.83;33.08;;;;;;;;;;5014924;28;20685;-87
2024/01/04 03:56:33;;;;;;;48.65;27.48;;;;;;;;;;5008700;28;20025;-87
2024/01/04 03:58:59;;;;;;;40.58;25.10;;;;;;;;;;5026044;28;20033;-87
2024/01/04 04:01:24;;;;;;;39.70;24.90;;;;;;;;;;5025305;28;20025;-87
2024/01/04 04:03:49;;;;;;;45.33;25.80;;;;;;;;;;5012725;28;20045;-87
2024/01/04 04:06:18;;;;;;;50.92;31.08;;;;;;;;;;5026494;28;20064;-87
2024/01/04 04:08:43;;;;;;;71.97;40.45;;;;;;;;;;5026076;28;20117;-87
2024/01/04 04:11:16;;;;;;;81.38;44.83;;;;;;;;;;5026506;28;20045;-86
2024/01/04 04:13:41;;;;;;;61.70;38.35;;;;;;;;;;5021023;28;20078;-87
2024/01/04 04:16:06;;;;;;;59.65;37.20;;;;;;;;;;5008240;28;20045;-87
2024/01/04 04:18:31;;;;;;;128.10;61.17;;;;;;;;;;5007974;28;20175;-87
2024/01/04 04:20:57;;;;;;;70.03;41.67;;;;;;;;;;5026938;28;20811;-87
2024/01/04 04:23:22;;;;;;;61.20;35.85;;;;;;;;;;5025662;28;20026;-86
2024/01/04 04:25:47;;;;;;;77.30;44.78;;;;;;;;;;5009180;28;20024;-86
2024/01/04 04:28:14;;;;;;;107.50;65.10;;;;;;;;;;5025947;28;20014;-87
2024/01/04 04:30:39;;;;;;;98.18;52.35;;;;;;;;;;5031308;28;20024;-86
2024/01/04 04:33:04;;;;;;;275.23;142.43;;;;;;;;;;5026427;28;20092;-86
2024/01/04 04:35:30;;;;;;;150.98;91.05;;;;;;;;;;5010262;28;20509;-86
2024/01/04 04:37:55;;;;;;;165.52;110.95;;;;;;;;;;5009851;28;20073;-86
2024/01/04 04:40:20;;;;;;;70.30;42.25;;;;;;;;;;5009975;28;20021;-86
2024/01/04 04:42:46;;;;;;;102.20;62.97;;;;;;;;;;5028080;28;20101;-86
2024/01/04 04:45:11;;;;;;;72.93;41.83;;;;;;;;;;5010954;28;20078;-86
2024/01/04 04:47:37;;;;;;;109.63;52.33;;;;;;;;;;5028734;28;20032;-86
2024/01/04 04:50:03;;;;;;;79.43;43.50;;;;;;;;;;5024875;28;20029;-87
2024/01/04 04:52:29;;;;;;;84.25;46.33;;;;;;;;;;5026597;28;20020;-86
2024/01/04 04:54:55;;;;;;;82.30;47.75;;;;;;;;;;5025231;28;20113;-86
2024/01/04 04:57:20;;;;;;;68.93;39.50;;;;;;;;;;5027714;28;20104;-87
2024/01/04 04:59:45;;;;;;;83.60;46.55;;;;;;;;;;5026004;28;20407;-86
2024/01/04 05:02:11;;;;;;;104.70;51.85;;;;;;;;;;5009461;28;20030;-86
2024/01/04 05:04:36;;;;;;;73.68;39.95;;;;;;;;;;5011481;28;20108;-86
2024/01/04 05:07:01;;;;;;;106.93;46.50;;;;;;;;;;5025835;28;20029;-86
2024/01/04 05:09:27;;;;;;;77.13;57.83;;;;;;;;;;5026561;28;20403;-86
2024/01/04 05:11:52;;;;;;;75.38;41.75;;;;;;;;;;5007623;28;20621;-86
2024/01/04 05:14:18;;;;;;;62.10;33.75;;;;;;;;;;5022577;28;20028;-87
2024/01/04 05:16:44;;;;;;;75.22;41.33;;;;;;;;;;5003452;28;20071;-86
2024/01/04 05:19:10;;;;;;;138.10;54.75;;;;;;;;;;5023875;28;20014;-86
2024/01/04 05:21:35;;;;;;;136.77;86.60;;;;;;;;;;5003725;28;20025;-86
2024/01/04 05:24:01;;;;;;;108.97;61.75;;;;;;;;;;5005274;28;20036;-86
2024/01/04 05:26:27;;;;;;;84.25;46.75;;;;;;;;;;5020204;28;20021;-87
2024/01/04 05:28:52;;;;;;;56.33;28.42;;;;;;;;;;5005933;28;20060;-87
2024/01/04 05:31:19;;;;;;;54.38;31.15;;;;;;;;;;5021617;28;20021;-86
2024/01/04 05:33:45;;;;;;;67.35;31.55;;;;;;;;;;5022618;28;20021;-86
2024/01/04 05:36:10;;;;;;;101.25;52.33;;;;;;;;;;5005789;28;20653;-86
2024/01/04 05:38:36;;;;;;;81.35;38.13;;;;;;;;;;5003895;28;20103;-88
2024/01/04 05:41:02;;;;;;;61.58;33.10;;;;;;;;;;5005371;28;20640;-87
2024/01/04 05:43:29;;;;;;;101.45;48.00;;;;;;;;;;5003892;28;20029;-87
2024/01/04 05:45:54;;;;;;;71.32;38.10;;;;;;;;;;5024825;28;20068;-87
2024/01/04 05:48:21;;;;;;;95.13;44.88;;;;;;;;;;5003910;28;20041;-87
2024/01/04 05:50:46;;;;;;;120.85;54.95;;;;;;;;;;5006879;28;20028;-86
2024/01/04 05:53:12;;;;;;;76.50;33.70;;;;;;;;;;5003126;28;20025;-87
2024/01/04 05:55:37;;;;;;;60.30;30.70;;;;;;;;;;5022821;28;20083;-87
2024/01/04 05:58:03;;;;;;;100.07;43.03;;;;;;;;;;5003457;28;20581;-87
2024/01/04 06:00:28;;;;;;;59.15;30.65;;;;;;;;;;5003967;28;20021;-88
2024/01/04 06:02:53;;;;;;;82.80;43.40;;;;;;;;;;5019838;28;20045;-87
2024/01/04 06:05:18;;;;;;;131.63;49.78;;;;;;;;;;5020913;28;20025;-88
2024/01/04 06:07:44;;;;;;;126.00;54.15;;;;;;;;;;5004561;28;20033;-86
2024/01/04 06:10:09;;;;;;;95.82;45.40;;;;;;;;;;5020935;28;20037;-87
2024/01/04 06:12:34;;;;;;;109.53;48.22;;;;;;;;;;5021767;28;20017;-87
2024/01/04 06:15:01;;;;;;;153.05;60.50;;;;;;;;;;5020299;28;20017;-87
2024/01/04 06:17:26;;;;;;;78.03;41.60;;;;;;;;;;5023524;28;20017;-87
2024/01/04 06:19:51;;;;;;;116.00;54.05;;;;;;;;;;5002406;28;20036;-87
2024/01/04 06:22:16;;;;;;;106.15;45.50;;;;;;;;;;5005228;28;20022;-87
2024/01/04 06:24:42;;;;;;;123.15;55.95;;;;;;;;;;5002009;28;20075;-87
2024/01/04 06:27:07;;;;;;;105.55;50.45;;;;;;;;;;5022543;28;20220;-87
2024/01/04 06:29:33;;;;;;;98.35;51.85;;;;;;;;;;5019561;28;20648;-88
2024/01/04 06:31:58;;;;;;;76.25;42.58;;;;;;;;;;5002370;28;20017;-87
2024/01/04 06:34:23;;;;;;;136.50;74.80;;;;;;;;;;5023528;28;20618;-87
2024/01/04 06:36:49;;;;;;;139.65;81.13;;;;;;;;;;4988178;28;20660;-87
2024/01/04 06:39:15;;;;;;;200.55;104.95;;;;;;;;;;5004742;28;20052;-87
2024/01/04 06:41:43;;;;;;;200.27;102.25;;;;;;;;;;5003681;28;20022;-87
2024/01/04 06:44:08;;;;;;;213.63;91.95;;;;;;;;;;5023844;28;20013;-87
2024/01/04 06:46:34;;;;;;;339.10;147.88;;;;;;;;;;5009452;28;20059;-88
2024/01/04 06:48:59;;;;;;;304.73;145.68;;;;;;;;;;5004648;28;20048;-86
2024/01/04 06:51:25;;;;;;;198.32;128.77;;;;;;;;;;5002676;28;20045;-87
2024/01/04 06:53:50;;;;;;;352.05;170.90;;;;;;;;;;5005826;28;20075;-88
2024/01/04 06:56:18;;;;;;;328.48;139.27;;;;;;;;;;5021011;28;20718;-87
2024/01/04 06:58:43;;;;;;;259.63;108.47;;;;;;;;;;5006812;28;20383;-88
2024/01/04 07:01:09;;;;;;;419.90;192.35;;;;;;;;;;5005786;28;20014;-87
2024/01/04 07:03:34;;;;;;;247.13;108.20;;;;;;;;;;5008044;28;20014;-88
2024/01/04 07:05:59;;;;;;;229.50;119.70;;;;;;;;;;5023257;28;20009;-87
2024/01/04 07:08:25;;;;;;;384.63;168.38;;;;;;;;;;5005397;28;20080;-87
2024/01/04 07:10:50;;;;;;;320.80;173.73;;;;;;;;;;5022359;28;20018;-87
2024/01/04 07:13:15;;;;;;;348.95;165.35;;;;;;;;;;5022246;28;20055;-88
2024/01/04 07:15:41;;;;;;;249.57;125.75;;;;;;;;;;4994109;28;20021;-88
2024/01/04 07:18:06;;;;;;;330.20;184.07;;;;;;;;;;4993363;28;20029;-88
2024/01/04 07:20:33;;;;;;;397.58;244.93;;;;;;;;;;5027756;28;20116;-88
2024/01/04 07:22:58;;;;;;;341.65;172.13;;;;;;;;;;5008610;28;20440;-88
2024/01/04 07:25:23;;;;;;;401.88;229.95;;;;;;;;;;5012420;28;20026;-88
2024/01/04 07:27:49;;;;;;;271.50;150.10;;;;;;;;;;5016702;28;20032;-89
2024/01/04 07:30:14;;;;;;;252.52;155.82;;;;;;;;;;5008099;28;20021;-88
2024/01/04 07:32:39;;;;;;;358.63;207.18;;;;;;;;;;5008585;28;20026;-89
2024/01/04 07:35:06;;;;;;;291.60;157.48;;;;;;;;;;5026029;28;20026;-88
2024/01/04 07:37:31;;;;;;;440.27;199.65;;;;;;;;;;5025295;28;20132;-88
2024/01/04 07:39:56;;;;;;;379.30;209.15;;;;;;;;;;5008692;28;20477;-88
2024/01/04 07:42:23;;;;;;;329.95;172.25;;;;;;;;;;5011338;28;20060;-88
2024/01/04 07:44:48;;;;;;;283.30;131.70;;;;;;;;;;5026940;28;20096;-88
2024/01/04 07:47:14;;;;;;;205.18;125.55;;;;;;;;;;5026642;28;20028;-88
2024/01/04 07:49:39;;;;;;;218.27;127.35;;;;;;;;;;5028568;28;20014;-88
2024/01/04 07:52:04;;;;;;;220.25;123.57;;;;;;;;;;5030037;28;20121;-88
2024/01/04 07:54:30;;;;;;;207.02;109.93;;;;;;;;;;5028294;28;20558;-88
2024/01/04 07:56:55;;;;;;;183.65;115.65;;;;;;;;;;5027488;28;20029;-88
2024/01/04 07:59:22;;;;;;;220.85;139.70;;;;;;;;;;5011617;28;20112;-88
2024/01/04 08:01:49;;;;;;;197.05;122.63;;;;;;;;;;5028167;28;20021;-88
2024/01/04 08:04:14;;;;;;;236.27;136.30;;;;;;;;;;5010029;28;20021;-88
2024/01/04 08:06:39;;;;;;;214.32;123.78;;;;;;;;;;5011065;28;20024;-88
2024/01/04 08:09:05;;;;;;;223.23;136.73;;;;;;;;;;5027504;28;20443;-88
2024/01/04 08:11:30;;;;;;;372.70;200.55;;;;;;;;;;5010125;28;20095;-88
2024/01/04 08:13:55;;;;;;;268.33;156.88;;;;;;;;;;5025887;28;20391;-88
2024/01/04 08:16:21;;;;;;;149.60;97.70;;;;;;;;;;5009582;28;20128;-88
2024/01/04 08:18:46;;;;;;;248.98;142.07;;;;;;;;;;5008932;28;20403;-88
2024/01/04 08:21:11;;;;;;;267.73;151.82;;;;;;;;;;5009931;28;20029;-89
2024/01/04 08:23:41;;;;;;;274.08;163.10;;;;;;;;;;5026286;28;20074;-87
2024/01/04 08:26:06;;;;;;;;;;;;;;;;;;5024457;28;20350;-88
2024/01/04 08:28:31;;;;;;;531.03;320.40;;;;;;;;;;5014270;28;19913;-88
2024/01/04 08:30:57;;;;;;;160.25;90.10;;;;;;;;;;5009111;28;20247;-86
2024/01/04 08:33:22;;;;;;;64.78;41.03;;;;;;;;;;5005989;28;20036;-88
2024/01/04 08:35:47;;;;;;;42.33;23.95;;;;;;;;;;5009380;28;20104;-87
2024/01/04 08:38:13;;;;;;;81.65;45.83;;;;;;;;;;5026648;28;20415;-86
2024/01/04 08:40:38;;;;;;;44.08;27.17;;;;;;;;;;5024843;28;20403;-85
2024/01/04 08:43:04;;;;;;;39.25;27.27;;;;;;;;;;5026668;28;20021;-86
2024/01/04 08:45:29;;;;;;;34.92;24.88;;;;;;;;;;5011431;28;20040;-85
2024/01/04 08:47:55;;;;;;;54.13;35.63;;;;;;;;;;5020281;28;20755;-85
2024/01/04 08:50:21;;;;;;;92.38;62.08;;;;;;;;;;5013917;28;20578;-88
2024/01/04 08:52:47;;;;;;;67.68;37.10;;;;;;;;;;5011953;28;20033;-88
2024/01/04 08:55:14;;;;;;;40.22;22.85;;;;;;;;;;5010268;28;20039;-88
2024/01/04 08:57:39;;;;;;;21.10;13.68;;;;;;;;;;5016673;28;20108;-87
2024/01/04 09:00:05;;;;;;;17.42;10.20;;;;;;;;;;5019801;28;20097;-87
2024/01/04 09:02:30;;;;;;;23.35;13.93;;;;;;;;;;5009497;28;20092;-87
2024/01/04 09:04:57;;;;;;;15.70;7.85;;;;;;;;;;5012228;28;20025;-87
2024/01/04 09:07:22;;;;;;;20.38;9.98;;;;;;;;;;5026671;28;20097;-87
2024/01/04 09:09:47;;;;;;;13.07;8.07;;;;;;;;;;5008718;28;20116;-88
2024/01/04 09:12:15;;;;;;;14.15;8.05;;;;;;;;;;4994159;28;20029;-88
2024/01/04 09:14:40;;;;;;;9.57;6.38;;;;;;;;;;5009448;28;20041;-88
2024/01/04 09:17:05;;;;;;;8.80;5.47;;;;;;;;;;5007966;28;20033;-90
2024/01/04 09:19:31;;;;;;;10.95;7.18;;;;;;;;;;5026462;28;20022;-87
2024/01/04 09:21:56;;;;;;;20.23;10.68;;;;;;;;;;5007936;28;20414;-90
2024/01/04 09:24:23;;;;;;;40.65;24.58;;;;;;;;;;5006527;28;20492;-88
2024/01/04 09:26:48;;;;;;;21.02;13.02;;;;;;;;;;5025897;28;20559;-88
2024/01/04 09:29:14;;;;;;;18.02;9.95;;;;;;;;;;5025021;28;20352;-90
2024/01/04 09:31:40;;;;;;;15.05;9.38;;;;;;;;;;5009602;28;20025;-89
2024/01/04 09:34:06;;;;;;;24.35;15.02;;;;;;;;;;5025076;28;20040;-89
2024/01/04 09:36:31;;;;;;;27.45;15.52;;;;;;;;;;5010720;28;20022;-89
2024/01/04 09:38:57;;;;;;;41.13;25.25;;;;;;;;;;5011927;28;20487;-89
2024/01/04 09:41:31;;;;;;;9.05;5.82;;;;;;;;;;5026608;28;20017;-89
2024/01/04 09:44:00;;;;;;;8.27;5.30;;;;;;;;;;5028059;28;20071;-88
2024/01/04 09:46:29;;;;;;;21.42;14.00;;;;;;;;;;5008844;28;20608;-89
2024/01/04 09:48:58;;;;;;;20.92;11.00;;;;;;;;;;5024336;28;20096;-88
2024/01/04 09:51:23;;;;;;;;;;;;;;;;;;5027904;28;20030;-89
2024/01/04 09:53:53;;;;;;;33.78;20.48;;;;;;;;;;5009240;28;20376;-88
2024/01/04 09:56:19;;;;;;;64.88;40.88;;;;;;;;;;5027454;28;20763;-89
2024/01/04 09:58:44;;;;;;;61.33;37.65;;;;;;;;;;5013846;28;20025;-90
2024/01/04 10:01:10;;;;;;;37.70;19.73;;;;;;;;;;5009849;28;20018;-88
2024/01/04 10:03:38;;;;;;;29.70;18.45;;;;;;;;;;5010036;28;20037;-87
2024/01/04 10:06:07;;;;;;;33.25;22.60;;;;;;;;;;5009879;28;20480;-88
2024/01/04 10:08:37;;;;;;;34.38;23.45;;;;;;;;;;5027063;28;20112;-87
2024/01/04 10:11:07;;;;;;;21.77;17.42;;;;;;;;;;4994956;28;20034;-88
2024/01/04 10:13:32;;;;;;;34.83;19.65;;;;;;;;;;5027559;28;20083;-88
2024/01/04 10:15:59;;;;;;;19.35;10.85;;;;;;;;;;5009622;28;20497;-88
2024/01/04 10:21:32;;;;;;;14.20;9.90;;;;;;;;;;5024350;28;20032;-88
2024/01/04 10:23:58;;;;;;;47.13;25.30;;;;;;;;;;5003412;28;20574;-88
2024/01/04 10:26:23;;;;;;;106.68;40.83;;;;;;;;;;5009246;28;20132;-87
2024/01/04 10:28:54;;;;;;;55.00;19.88;;;;;;;;;;5024492;28;20029;-87
2024/01/04 10:31:19;;;;;;;42.25;16.40;;;;;;;;;;5007622;28;20072;-87
2024/01/04 10:33:45;;;;;;;93.32;34.67;;;;;;;;;;5010023;28;20053;-87
2024/01/04 10:36:11;;;;;;;24.75;10.70;;;;;;;;;;5025350;28;20498;-88
2024/01/04 10:38:37;;;;;;;22.20;10.45;;;;;;;;;;4995610;28;20136;-88
2024/01/04 10:41:04;;;;;;;258.88;89.80;;;;;;;;;;5028088;28;20096;-87
2024/01/04 10:43:32;;;;;;;57.70;27.90;;;;;;;;;;5010188;28;20022;-86
2024/01/04 10:46:02;;;;;;;21.67;13.65;;;;;;;;;;5007060;28;20033;-86
2024/01/04 10:48:27;;;;;;;22.88;13.50;;;;;;;;;;5024695;28;20064;-86
2024/01/04 10:50:55;;;;;;;57.97;41.22;;;;;;;;;;5007308;28;20081;-86
2024/01/04 10:53:21;;;;;;;96.70;48.20;;;;;;;;;;5006992;28;20036;-86
2024/01/04 10:55:47;;;;;;;13.45;9.18;;;;;;;;;;5004606;28;20027;-85
2024/01/04 10:58:13;;;;;;;20.55;11.82;;;;;;;;;;5007235;28;20025;-86
2024/01/04 11:00:38;;;;;;;37.25;17.58;;;;;;;;;;5022633;28;20025;-84
2024/01/04 11:03:05;;;;;;;54.13;27.00;;;;;;;;;;5024271;28;20022;-86
2024/01/04 11:05:33;;;;;;;52.97;29.05;;;;;;;;;;5023607;28;20075;-86
2024/01/04 11:07:59;;;;;;;48.58;27.20;;;;;;;;;;5010358;28;20424;-87
2024/01/04 11:10:25;;;;;;;119.63;50.25;;;;;;;;;;5005387;28;20495;-86
2024/01/04 11:12:51;;;;;;;85.45;34.53;;;;;;;;;;5023964;28;20032;-86
2024/01/04 11:15:16;;;;;;;29.50;18.00;;;;;;;;;;5026047;28;20025;-85
2024/01/04 11:18:00;;;;;;;71.07;38.72;;;;;;;;;;5025664;28;20190;-87
2024/01/04 11:20:28;;;;;;;73.38;42.25;;;;;;;;;;5022971;28;20030;-86
2024/01/04 11:23:03;;;;;;;99.30;54.50;;;;;;;;;;5004074;28;20071;-85
2024/01/04 11:25:47;;;;;;;29.25;19.63;;;;;;;;;;5020653;28;20483;-86
2024/01/04 11:28:12;;;;;;;42.70;25.88;;;;;;;;;;5022458;28;20029;-86
2024/01/04 11:30:38;;;;;;;24.77;16.63;;;;;;;;;;5015057;28;20510;-86
2024/01/04 11:33:04;;;;;;;27.73;21.13;;;;;;;;;;5027548;28;20526;-87
2024/01/04 11:35:33;;;;;;;48.05;32.42;;;;;;;;;;5010823;28;20111;-85
2024/01/04 11:37:58;;;;;;;53.35;35.10;;;;;;;;;;5005259;28;20188;-85
2024/01/04 11:40:27;;;;;;;162.95;97.25;;;;;;;;;;5008855;28;20160;-85
2024/01/04 11:42:52;;;;;;;;;;;;;;;;;;5011051;28;20117;-85
2024/01/04 11:45:18;;;;;;;98.80;53.38;;;;;;;;;;5025821;28;20370;-86
2024/01/04 11:47:44;;;;;;;117.35;58.45;;;;;;;;;;5008359;28;20025;-87
2024/01/04 11:50:12;;;;;;;32.83;18.95;;;;;;;;;;5016257;28;20033;-86
2024/01/04 11:52:38;;;;;;;22.75;11.23;;;;;;;;;;5028220;28;20115;-87
2024/01/04 11:55:03;;;;;;;34.92;20.02;;;;;;;;;;5027439;28;20076;-86
2024/01/04 11:57:29;;;;;;;21.73;11.05;;;;;;;;;;5025972;28;20029;-87
2024/01/04 11:59:54;;;;;;;18.63;10.40;;;;;;;;;;5012726;28;20518;-87
2024/01/04 12:02:21;;;;;;;12.05;7.00;;;;;;;;;;5027065;28;20060;-87
2024/01/04 12:04:48;;;;;;;11.13;5.45;;;;;;;;;;5010127;28;20025;-86
2024/01/04 12:07:13;;;;;;;10.10;5.20;;;;;;;;;;5009425;28;20855;-86
2024/01/04 12:09:39;;;;;;;12.00;5.38;;;;;;;;;;5025808;28;20159;-86
2024/01/04 12:12:05;;;;;;;7.53;4.20;;;;;;;;;;5008777;28;20052;-86
2024/01/04 12:14:33;;;;;;;4.43;2.70;;;;;;;;;;5026999;28;20716;-86
2024/01/04 12:16:58;;;;;;;7.60;4.13;;;;;;;;;;5027319;28;20034;-87
2024/01/04 12:19:24;;;;;;;8.82;3.92;;;;;;;;;;5009139;28;20328;-87
2024/01/04 12:21:49;;;;;;;3.72;2.63;;;;;;;;;;5027386;28;20093;-87
2024/01/04 12:24:15;;;;;;;5.28;2.30;;;;;;;;;;5026171;28;20036;-87
2024/01/04 12:26:41;;;;;;;6.10;3.70;;;;;;;;;;5012223;28;20025;-87
2024/01/04 12:29:07;;;;;;;4.45;2.80;;;;;;;;;;5024893;28;20029;-87
2024/01/04 12:31:34;;;;;;;9.82;6.85;;;;;;;;;;5008628;28;20037;-87
2024/01/04 12:33:59;;;;;;;17.05;9.23;;;;;;;;;;5009326;28;20044;-87
2024/01/04 12:36:27;;;;;;;17.13;13.73;;;;;;;;;;5028441;28;20573;-87
2024/01/04 12:39:06;;;;;;;14.07;10.95;;;;;;;;;;5008812;28;20042;-87
2024/01/04 12:41:31;;;;;;;23.17;18.75;;;;;;;;;;5027069;28;20025;-86
2024/01/04 12:43:57;;;;;;;14.55;11.27;;;;;;;;;;4992212;28;20690;-87
2024/01/04 12:46:23;;;;;;;16.60;12.85;;;;;;;;;;5027778;28;20287;-87
2024/01/04 12:48:49;;;;;;;14.43;9.82;;;;;;;;;;5009591;28;20025;-87
2024/01/04 12:51:14;;;;;;;14.45;9.55;;;;;;;;;;5015137;28;20017;-88
2024/01/04 12:53:45;;;;;;;13.25;8.40;;;;;;;;;;5009280;28;20056;-87
2024/01/04 12:56:11;;;;;;;22.63;19.75;;;;;;;;;;5010812;28;20056;-87
2024/01/04 12:58:37;;;;;;;55.85;34.35;;;;;;;;;;5025543;28;20021;-87
2024/01/04 13:01:02;;;;;;;52.20;33.85;;;;;;;;;;5028625;28;20033;-88
2024/01/04 13:03:28;;;;;;;15.48;11.70;;;;;;;;;;5028936;28;20044;-87
2024/01/04 13:05:53;;;;;;;25.58;16.48;;;;;;;;;;5017157;28;20032;-87
2024/01/04 13:08:19;;;;;;;47.05;29.13;;;;;;;;;;5028547;28;20049;-86
2024/01/04 13:10:44;;;;;;;22.23;14.85;;;;;;;;;;5028181;28;20037;-87
2024/01/04 13:13:09;;;;;;;346.55;189.30;;;;;;;;;;5013036;28;20022;-87
2024/01/04 13:15:35;;;;;;;92.93;56.83;;;;;;;;;;5013394;28;20091;-87
2024/01/04 13:18:00;;;;;;;108.03;60.95;;;;;;;;;;5011341;28;20399;-87
2024/01/04 13:20:25;;;;;;;105.65;62.15;;;;;;;;;;5012052;28;20045;-88
2024/01/04 13:22:50;;;;;;;49.95;34.80;;;;;;;;;;5027888;28;20048;-87
2024/01/04 13:25:16;;;;;;;100.38;59.90;;;;;;;;;;5011825;28;20443;-87
2024/01/04 13:27:41;;;;;;;56.00;36.25;;;;;;;;;;5010361;28;20483;-87
2024/01/04 13:30:07;;;;;;;65.82;41.50;;;;;;;;;;5009145;28;20032;-86
2024/01/04 13:32:33;;;;;;;182.38;103.47;;;;;;;;;;5022427;28;20431;-87
2024/01/04 13:35:00;;;;;;;174.02;104.50;;;;;;;;;;5011090;28;20029;-88
2024/01/04 13:37:25;;;;;;;105.90;71.57;;;;;;;;;;5010633;28;20401;-88
2024/01/04 13:39:51;;;;;;;160.18;110.15;;;;;;;;;;4994369;28;20178;-87
2024/01/04 13:42:21;;;;;;;186.50;130.93;;;;;;;;;;5012108;28;20033;-85
2024/01/04 13:44:47;;;;;;;98.95;65.90;;;;;;;;;;5016942;28;20021;-86
2024/01/04 13:47:13;;;;;;;93.32;66.43;;;;;;;;;;5027671;28;20017;-85
2024/01/04 13:49:39;;;;;;;87.30;54.47;;;;;;;;;;5009407;28;20021;-86
2024/01/04 13:52:06;;;;;;;42.72;29.85;;;;;;;;;;5028427;28;20447;-86
2024/01/04 13:54:31;;;;;;;46.75;31.10;;;;;;;;;;5027542;28;20293;-86
2024/01/04 13:56:57;;;;;;;39.10;27.15;;;;;;;;;;5009895;28;20121;-86
2024/01/04 13:59:29;;;;;;;57.42;39.80;;;;;;;;;;5009035;28;20051;-85
2024/01/04 14:01:54;;;;;;;44.97;34.33;;;;;;;;;;5008991;28;20028;-86
2024/01/04 14:04:20;;;;;;;34.30;25.23;;;;;;;;;;5027850;28;20102;-87
2024/01/04 14:06:45;;;;;;;28.63;20.23;;;;;;;;;;5035375;28;20374;-87
2024/01/04 14:09:10;;;;;;;21.42;14.93;;;;;;;;;;5022758;28;20030;-87